Time;durP1;ratioP1;P1;durP2;ratioP2;P2;SDS_P1;SDS_P2;PMS_P1;PMS_P2;Temp;Humidity;BMP_temperature;BMP_pressure;BME280_temperature;BME280_humidity;BME280_pressure;Samples;Min_cycle;Max_cycle;Signal;HPM_P1;HPM_P2
2021/06/01 00:02:49;;;;;;;28.20;13.90;;;;;;;11.63;97.66;100746.97;713325;1202;115394;-71
2021/06/01 00:18:10;;;;;;;27.30;14.93;;;;;;;11.48;98.18;100728.92;712377;1205;115405;-73
2021/06/01 00:33:31;;;;;;;22.50;10.85;;;;;;;11.47;98.32;100742.19;712428;1180;114418;-71
2021/06/01 00:48:51;;;;;;;23.77;12.30;;;;;;;11.38;99.33;100721.95;712494;1202;115898;-72
2021/06/01 01:04:12;;;;;;;24.25;12.08;;;;;;;11.27;100.00;100713.19;712334;1202;114778;-71
2021/06/01 01:20:07;;;;;;;18.97;9.50;;;;;;;11.41;100.00;100722.50;712262;1202;115862;-71
2021/06/01 01:35:31;;;;;;;20.77;10.07;;;;;;;11.61;100.00;100728.72;712294;1203;114563;-72
2021/06/01 01:51:11;;;;;;;25.30;11.60;;;;;;;11.54;100.00;100734.62;712468;1202;115701;-72
2021/06/01 02:06:32;;;;;;;15.55;8.95;;;;;;;11.39;100.00;100721.82;712264;1202;115990;-71
2021/06/01 02:22:15;;;;;;;30.35;13.40;;;;;;;11.43;100.00;100717.97;712327;1178;114358;-71
2021/06/01 02:37:39;;;;;;;16.70;9.35;;;;;;;11.61;100.00;100693.70;712230;1179;115069;-72
2021/06/01 02:53:02;;;;;;;14.18;7.83;;;;;;;11.48;100.00;100657.14;712350;1203;115573;-72
2021/06/01 03:08:28;;;;;;;19.67;9.60;;;;;;;11.38;100.00;100635.27;712451;1202;114687;-72
2021/06/01 03:23:48;;;;;;;18.53;9.37;;;;;;;11.73;100.00;100605.94;712472;1202;114891;-72
2021/06/01 03:39:09;;;;;;;26.90;13.00;;;;;;;12.25;100.00;100597.03;712432;1202;115587;-72
2021/06/01 03:54:30;;;;;;;15.17;8.07;;;;;;;12.78;100.00;100627.31;712531;1202;114827;-73
2021/06/01 04:09:51;;;;;;;10.50;6.33;;;;;;;13.01;100.00;100635.69;712783;1203;114346;-72
2021/06/01 04:25:11;;;;;;;9.63;6.48;;;;;;;13.21;99.99;100644.39;712378;1202;115977;-72
2021/06/01 04:40:32;;;;;;;15.00;6.80;;;;;;;13.22;99.82;100645.21;712641;1180;113843;-72
2021/06/01 04:55:52;;;;;;;14.47;6.33;;;;;;;13.59;99.86;100639.13;712422;1205;114485;-72
2021/06/01 05:11:15;;;;;;;12.15;7.03;;;;;;;14.10;98.63;100616.61;715053;1169;115866;-80
2021/06/01 05:26:35;;;;;;;7.00;5.20;;;;;;;14.88;94.77;100611.66;712266;1206;114955;-79
2021/06/01 05:41:55;;;;;;;9.10;4.40;;;;;;;15.79;90.18;100597.02;712235;1202;114626;-81
2021/06/01 05:57:16;;;;;;;10.90;4.87;;;;;;;16.00;87.34;100599.23;712309;1206;114383;-77
2021/06/01 06:12:36;;;;;;;10.30;5.25;;;;;;;16.32;85.28;100575.61;712192;1202;115456;-77
2021/06/01 06:27:57;;;;;;;10.80;5.90;;;;;;;16.40;83.93;100572.95;712533;1204;115034;-77
2021/06/01 06:43:17;;;;;;;10.38;5.90;;;;;;;16.19;83.50;100568.16;712375;1202;115288;-77
2021/06/01 06:58:37;;;;;;;13.30;5.87;;;;;;;16.03;84.84;100547.81;712516;1206;114371;-75
2021/06/01 07:14:10;;;;;;;11.80;5.95;;;;;;;16.05;85.86;100544.02;712421;1201;114913;-79
2021/06/01 07:29:31;;;;;;;9.03;6.18;;;;;;;16.53;87.26;100535.38;712577;1202;114656;-80
2021/06/01 07:44:51;;;;;;;13.98;7.40;;;;;;;16.94;87.93;100541.41;712324;1202;113976;-79
2021/06/01 08:00:13;;;;;;;16.93;6.20;;;;;;;17.11;86.42;100546.67;712380;1203;114786;-77
2021/06/01 08:15:33;;;;;;;12.95;6.13;;;;;;;17.69;85.50;100546.39;712581;1202;115427;-74
2021/06/01 08:30:54;;;;;;;12.20;5.80;;;;;;;18.13;82.41;100554.56;712359;1203;114506;-75
2021/06/01 08:46:16;;;;;;;11.50;5.57;;;;;;;18.77;79.87;100540.00;712623;1202;114745;-75
2021/06/01 09:01:37;;;;;;;8.67;5.10;;;;;;;18.60;78.32;100543.84;712448;1203;115325;-78
2021/06/01 09:32:45;;;;;;;8.88;5.33;;;;;;;18.48;76.71;100518.75;712376;1202;115605;-79
2021/06/01 09:48:09;;;;;;;9.60;5.40;;;;;;;18.72;77.71;100522.97;712709;1202;115142;-77
2021/06/01 10:03:51;;;;;;;10.47;5.37;;;;;;;19.12;78.31;100527.02;712408;1206;113931;-78
2021/06/01 10:19:13;;;;;;;7.15;4.90;;;;;;;20.39;72.21;100518.61;712434;1206;115382;-81
2021/06/01 10:34:35;;;;;;;6.37;3.60;;;;;;;22.89;66.60;100514.44;712558;1202;114862;-82
2021/06/01 10:50:24;;;;;;;4.18;2.90;;;;;;;24.12;62.37;100519.74;712757;1202;114803;-79
2021/06/01 11:05:58;;;;;;;5.50;3.17;;;;;;;24.02;59.04;100491.59;712332;1202;114522;-78
2021/06/01 11:21:26;;;;;;;5.53;3.00;;;;;;;23.29;58.02;100494.74;712258;1203;114543;-79
2021/06/01 11:36:47;;;;;;;5.58;3.15;;;;;;;23.30;56.95;100499.06;712911;1202;114671;-84
2021/06/01 11:52:09;;;;;;;5.90;3.53;;;;;;;23.06;56.46;100475.47;712477;1202;115112;-83
2021/06/01 12:23:32;;;;;;;5.77;3.77;;;;;;;22.81;55.36;100477.24;713432;1202;114530;-77
2021/06/01 13:57:36;;;;;;;12.13;6.03;;;;;;;22.16;61.83;100477.95;712650;1203;100314;-77
2021/06/01 17:06:05;;;;;;;31.85;17.13;;;;;;;19.03;90.76;100581.29;713046;1202;114704;-81
2021/06/01 17:36:57;;;;;;;14.83;9.43;;;;;;;18.40;95.73;100597.48;712603;1180;114778;-77
2021/06/01 17:52:29;;;;;;;37.40;19.03;;;;;;;18.14;97.37;100603.16;712470;1202;114720;-76
2021/06/01 19:57:23;;;;;;;;;;;;;;;16.11;100.00;100725.95;712511;1202;115788;-73
2021/06/01 20:12:45;;;;;;;23.75;14.38;;;;;;;15.96;100.00;100731.02;712720;1202;100951;-74
2021/06/01 20:28:08;;;;;;;124.85;51.63;;;;;;;15.77;100.00;100755.88;712320;1192;114402;-73
2021/06/01 20:43:32;;;;;;;14.08;9.20;;;;;;;15.42;100.00;100751.55;712505;1177;114500;-74
2021/06/01 20:58:56;;;;;;;14.70;7.90;;;;;;;15.07;100.00;100766.48;712487;1202;115432;-72
2021/06/01 21:14:16;;;;;;;41.40;16.77;;;;;;;14.88;98.94;100788.63;712474;1181;114250;-73
2021/06/01 21:29:38;;;;;;;26.55;12.20;;;;;;;14.67;97.98;100796.84;712580;1202;115818;-71
2021/06/01 21:44:59;;;;;;;42.30;16.60;;;;;;;14.31;97.06;100813.41;712486;1202;114520;-72
2021/06/01 22:00:37;;;;;;;14.78;7.85;;;;;;;14.06;97.18;100828.10;712512;1206;115248;-71
2021/06/01 22:16:01;;;;;;;18.07;8.83;;;;;;;13.81;97.79;100840.95;712323;1203;115723;-73
2021/06/01 22:31:39;;;;;;;147.35;33.50;;;;;;;13.74;97.87;100859.14;712323;1202;115304;-72
2021/06/01 22:47:04;;;;;;;17.00;8.80;;;;;;;13.67;97.81;100865.94;712576;1202;114654;-73
2021/06/01 23:02:28;;;;;;;17.07;9.73;;;;;;;13.61;97.89;100888.43;712396;1202;114415;-73
2021/06/01 23:17:52;;;;;;;15.60;8.10;;;;;;;13.72;97.59;100902.44;712294;1195;114606;-73
2021/06/01 23:33:12;;;;;;;60.85;24.65;;;;;;;13.70;96.16;100915.77;712480;1202;115221;-74
